createdAt,value
2023-03-22T00:00:15.296Z,68.04
2023-03-22T00:02:45.144Z,68.12
2023-03-22T00:05:13.540Z,68.57
2023-03-22T00:07:43.461Z,68.06
2023-03-22T00:10:12.512Z,68.38
2023-03-22T00:12:40.842Z,68.23
2023-03-22T00:15:11.159Z,68.32
2023-03-22T00:17:45.382Z,68.79
2023-03-22T00:20:14.092Z,69.10
2023-03-22T00:22:42.505Z,69.15
2023-03-22T00:25:11.630Z,68.87
2023-03-22T00:27:39.976Z,68.94
2023-03-22T00:30:10.530Z,69.19
2023-03-22T00:32:39.627Z,69.18
2023-03-22T00:35:11.246Z,69.05
2023-03-22T00:37:39.914Z,69.34
2023-03-22T00:40:11.236Z,69.32
2023-03-22T00:42:40.914Z,68.99
2023-03-22T00:45:12.222Z,69.09
2023-03-22T00:47:40.819Z,69.04
2023-03-22T00:50:11.665Z,68.84
2023-03-22T00:52:46.675Z,69.13
2023-03-22T00:55:15.373Z,68.91
2023-03-22T00:57:43.709Z,69.17
2023-03-22T01:00:14.181Z,69.29
2023-03-22T01:02:47.722Z,69.00
2023-03-22T01:05:17.914Z,69.09
2023-03-22T01:07:54.973Z,69.16
2023-03-22T01:10:23.819Z,69.42
2023-03-22T01:12:52.645Z,69.27
2023-03-22T01:15:22.516Z,68.95
2023-03-22T01:17:50.867Z,69.30
2023-03-22T01:20:20.907Z,68.95
2023-03-22T01:22:51.359Z,69.21
2023-03-22T01:25:20.167Z,69.30
2023-03-22T01:27:48.514Z,69.48
2023-03-22T01:30:17.024Z,69.36
2023-03-22T01:32:55.359Z,69.58
2023-03-22T01:35:25.180Z,69.17
2023-03-22T01:37:53.526Z,69.43
2023-03-22T01:40:22.071Z,69.66
2023-03-22T01:42:50.544Z,69.54
2023-03-22T01:45:35.641Z,69.40
2023-03-22T01:48:09.598Z,69.59
2023-03-22T01:50:42.577Z,69.80
2023-03-22T01:53:13.737Z,69.23
2023-03-22T01:55:43.254Z,69.33
2023-03-22T01:58:11.650Z,69.34
2023-03-22T02:00:40.565Z,69.45
2023-03-22T02:03:09.147Z,69.42
2023-03-22T02:05:39.823Z,69.88
2023-03-22T02:08:09.310Z,69.53
2023-03-22T02:10:38.340Z,69.31
2023-03-22T02:13:26.747Z,70.11
2023-03-22T02:16:04.195Z,69.55
2023-03-22T02:18:47.914Z,69.36
2023-03-22T02:21:49.279Z,69.94
2023-03-22T02:24:49.540Z,69.88
2023-03-22T02:27:40.374Z,69.82
2023-03-22T02:30:31.608Z,69.23
2023-03-22T02:33:36.536Z,69.40
2023-03-22T02:36:25.021Z,69.30
2023-03-22T02:39:16.692Z,69.51
2023-03-22T02:42:03.819Z,68.97
2023-03-22T02:44:41.540Z,69.14
2023-03-22T02:47:20.622Z,69.02
2023-03-22T02:49:57.835Z,69.24
2023-03-22T02:52:35.554Z,69.40
2023-03-22T02:55:09.471Z,69.30
2023-03-22T02:57:46.113Z,69.46
2023-03-22T03:00:17.910Z,69.40
2023-03-22T03:02:50.958Z,69.39
2023-03-22T03:05:21.543Z,69.77
2023-03-22T03:07:53.943Z,69.64
2023-03-22T03:10:24.850Z,69.48
2023-03-22T03:12:53.236Z,69.70
2023-03-22T03:15:27.044Z,69.74
2023-03-22T03:18:14.242Z,69.96
2023-03-22T03:20:55.561Z,69.83
2023-03-22T03:23:31.481Z,70.09
2023-03-22T03:26:05.861Z,69.78
2023-03-22T03:28:39.886Z,70.22
2023-03-22T03:31:17.281Z,69.72
2023-03-22T03:33:53.754Z,70.13
2023-03-22T03:36:23.772Z,70.39
2023-03-22T03:38:55.729Z,70.31
2023-03-22T03:41:29.564Z,70.14
2023-03-22T03:43:59.083Z,70.22
2023-03-22T03:46:29.136Z,70.18
2023-03-22T03:48:59.225Z,70.05
2023-03-22T03:51:28.993Z,70.17
2023-03-22T03:53:57.460Z,70.03
2023-03-22T03:56:27.463Z,70.11
2023-03-22T03:58:55.803Z,69.88
2023-03-22T04:01:24.194Z,70.52
2023-03-22T04:03:55.371Z,70.58
2023-03-22T04:06:23.933Z,70.20
2023-03-22T04:08:53.762Z,70.05
2023-03-22T04:11:22.224Z,70.00
2023-03-22T04:13:52.010Z,70.23
2023-03-22T04:16:20.495Z,69.77
2023-03-22T04:18:48.874Z,70.13
2023-03-22T04:21:17.536Z,70.03
2023-03-22T04:23:46.706Z,70.22
2023-03-22T04:26:15.303Z,69.81
2023-03-22T04:28:43.722Z,70.36
2023-03-22T04:31:13.544Z,70.69
2023-03-22T04:33:46.998Z,70.86
2023-03-22T04:36:17.608Z,70.79
2023-03-22T04:38:46.224Z,70.69
2023-03-22T04:41:14.521Z,71.25
2023-03-22T04:43:47.021Z,70.75
2023-03-22T04:46:16.891Z,70.68
2023-03-22T04:48:45.556Z,71.06
2023-03-22T04:51:13.982Z,71.27
2023-03-22T04:53:42.378Z,71.07
2023-03-22T04:56:13.269Z,70.88
2023-03-22T04:58:42.819Z,71.23
2023-03-22T05:01:12.737Z,71.17
2023-03-22T05:03:43.037Z,70.90
2023-03-22T05:06:11.537Z,71.20
2023-03-22T05:08:40.210Z,70.88
2023-03-22T05:11:10.681Z,71.14
2023-03-22T05:13:39.516Z,70.72
2023-03-22T05:16:09.213Z,70.79
2023-03-22T05:18:42.526Z,70.84
2023-03-22T05:21:15.407Z,70.38
2023-03-22T05:23:44.606Z,70.62
2023-03-22T05:26:15.637Z,70.50
2023-03-22T05:28:44.816Z,70.59
2023-03-22T05:31:15.444Z,70.42
2023-03-22T05:33:44.131Z,70.39
2023-03-22T05:36:14.163Z,70.82
2023-03-22T05:38:42.555Z,70.20
2023-03-22T05:41:11.472Z,70.16
2023-03-22T05:43:39.869Z,69.98
2023-03-22T05:46:09.068Z,70.58
2023-03-22T05:48:38.462Z,70.46
2023-03-22T05:51:13.334Z,70.25
2023-03-22T05:53:43.060Z,70.49
2023-03-22T05:56:11.471Z,70.34
2023-03-22T05:58:41.229Z,70.30
2023-03-22T06:01:12.066Z,70.80
2023-03-22T06:03:40.832Z,70.56
2023-03-22T06:06:11.566Z,69.99
2023-03-22T06:08:40.446Z,70.31
2023-03-22T06:11:10.368Z,70.38
2023-03-22T06:13:38.855Z,70.20
2023-03-22T06:16:08.081Z,70.72
2023-03-22T06:18:36.501Z,70.18
2023-03-22T06:21:06.080Z,70.04
2023-03-22T06:23:34.500Z,69.96
2023-03-22T06:26:02.854Z,70.45
2023-03-22T06:28:32.581Z,70.18
2023-03-22T06:31:07.561Z,70.05
2023-03-22T06:33:36.294Z,69.87
2023-03-22T06:36:05.477Z,70.46
2023-03-22T06:38:34.024Z,69.65
2023-03-22T06:41:02.384Z,70.47
2023-03-22T06:43:32.086Z,69.88
2023-03-22T06:46:00.786Z,69.83
2023-03-22T06:48:29.296Z,70.33
2023-03-22T06:50:57.760Z,69.93
2023-03-22T06:53:26.221Z,69.95
2023-03-22T06:55:55.500Z,70.28
2023-03-22T06:58:24.236Z,70.00
2023-03-22T07:00:56.501Z,70.13
2023-03-22T07:03:25.405Z,69.80
2023-03-22T07:05:53.819Z,69.99
2023-03-22T07:08:22.328Z,70.04
2023-03-22T07:10:51.685Z,69.80
2023-03-22T07:13:20.209Z,69.69
2023-03-22T07:15:48.737Z,69.47
2023-03-22T07:18:18.436Z,69.77
2023-03-22T07:20:46.945Z,69.35
2023-03-22T07:23:15.465Z,69.65
2023-03-22T07:25:44.124Z,69.60
2023-03-22T07:28:12.523Z,69.46
2023-03-22T07:30:42.068Z,69.30
2023-03-22T07:33:11.804Z,69.06
2023-03-22T07:35:41.762Z,68.83
2023-03-22T07:38:10.336Z,68.93
2023-03-22T07:40:39.092Z,68.57
2023-03-22T07:43:07.585Z,68.55
2023-03-22T07:45:36.155Z,68.45
2023-03-22T07:48:04.827Z,68.35
2023-03-22T07:50:33.510Z,68.40
2023-03-22T07:53:04.560Z,68.09
2023-03-22T07:55:32.932Z,68.17
2023-03-22T07:58:01.358Z,67.71
2023-03-22T08:00:29.880Z,67.71
2023-03-22T08:02:58.304Z,67.51
2023-03-22T08:05:26.954Z,67.41
2023-03-22T08:07:56.931Z,67.47
2023-03-22T08:10:26.780Z,67.00
2023-03-22T08:12:55.484Z,66.81
2023-03-22T08:15:24.028Z,66.68
2023-03-22T08:17:53.024Z,66.51
2023-03-22T08:20:21.628Z,66.39
2023-03-22T08:22:49.980Z,66.10
2023-03-22T08:25:18.438Z,66.03
2023-03-22T08:27:48.279Z,65.84
2023-03-22T08:30:17.072Z,65.81
2023-03-22T08:32:45.510Z,65.79
2023-03-22T08:35:13.866Z,65.79
2023-03-22T08:37:42.229Z,65.44
2023-03-22T08:40:12.030Z,65.12
2023-03-22T08:42:40.431Z,65.19
2023-03-22T08:45:12.495Z,64.95
2023-03-22T08:47:45.954Z,64.99
2023-03-22T08:50:14.625Z,64.77
2023-03-22T08:52:43.073Z,64.80
2023-03-22T08:55:11.816Z,64.37
2023-03-22T08:57:40.375Z,64.19
2023-03-22T09:00:12.029Z,64.34
2023-03-22T09:02:41.849Z,63.77
2023-03-22T09:05:10.922Z,63.32
2023-03-22T09:07:39.399Z,63.24
2023-03-22T09:10:09.398Z,63.14
2023-03-22T09:12:38.468Z,62.71
2023-03-22T09:15:08.159Z,62.32
2023-03-22T09:17:36.852Z,62.12
2023-03-22T09:20:12.875Z,61.49
2023-03-22T09:22:41.884Z,61.24
2023-03-22T09:25:12.840Z,60.78
2023-03-22T09:27:47.004Z,60.37
2023-03-22T09:30:15.496Z,60.27
2023-03-22T09:32:43.874Z,59.80
2023-03-22T09:35:13.908Z,59.75
2023-03-22T09:37:45.650Z,59.71
2023-03-22T09:40:15.741Z,59.24
2023-03-22T09:42:47.332Z,58.85
2023-03-22T09:45:21.252Z,58.79
2023-03-22T09:47:52.704Z,58.63
2023-03-22T09:50:24.976Z,58.49
2023-03-22T09:52:54.776Z,57.95
2023-03-22T09:55:31.572Z,57.64
2023-03-22T09:58:07.089Z,56.91
2023-03-22T10:00:42.843Z,56.32
2023-03-22T10:03:22.795Z,55.21
2023-03-22T10:05:58.521Z,55.17
2023-03-22T10:08:42.041Z,55.54
2023-03-22T10:11:17.097Z,55.38
2023-03-22T10:13:54.750Z,55.30
2023-03-22T10:16:28.215Z,55.38
2023-03-22T10:19:02.347Z,55.39
2023-03-22T10:21:45.360Z,55.64
2023-03-22T10:24:19.347Z,55.37
2023-03-22T10:26:49.357Z,55.05
2023-03-22T10:29:27.279Z,54.15
2023-03-22T10:31:56.461Z,54.13
2023-03-22T10:34:28.079Z,53.57
2023-03-22T10:37:02.385Z,52.94
2023-03-22T10:39:34.211Z,52.83
2023-03-22T10:42:06.257Z,52.49
2023-03-22T10:44:44.291Z,51.99
2023-03-22T10:47:13.069Z,51.86
2023-03-22T10:49:46.398Z,51.49
2023-03-22T10:52:32.443Z,50.92
2023-03-22T10:55:04.309Z,51.29
2023-03-22T10:57:35.567Z,50.92
2023-03-22T11:00:11.494Z,50.27
2023-03-22T11:02:52.245Z,49.54
2023-03-22T11:05:24.294Z,49.33
2023-03-22T11:07:54.821Z,48.69
2023-03-22T11:10:28.549Z,48.04
2023-03-22T11:13:12.500Z,48.22
2023-03-22T11:15:43.704Z,47.61
2023-03-22T11:18:16.101Z,47.11
2023-03-22T11:20:56.656Z,46.27
2023-03-22T11:23:28.497Z,46.64
2023-03-22T11:26:06.727Z,46.40
2023-03-22T11:28:38.610Z,46.47
2023-03-22T11:31:09.398Z,46.33
2023-03-22T11:33:38.648Z,45.73
2023-03-22T11:36:17.611Z,44.85
2023-03-22T11:38:48.839Z,45.10
2023-03-22T11:41:23.049Z,44.94
2023-03-22T11:43:55.315Z,45.42
2023-03-22T11:46:24.471Z,45.70
2023-03-22T11:49:00.950Z,45.57
2023-03-22T11:51:33.284Z,45.58
2023-03-22T11:54:10.614Z,44.99
2023-03-22T11:56:43.262Z,44.55
2023-03-22T11:59:16.747Z,44.67
2023-03-22T12:01:51.265Z,44.73
2023-03-22T12:04:24.704Z,44.42
2023-03-22T12:06:56.533Z,44.54
2023-03-22T12:09:36.484Z,43.94
2023-03-22T12:12:07.717Z,43.84
2023-03-22T12:14:44.764Z,43.54
2023-03-22T12:17:19.512Z,43.18
2023-03-22T12:19:59.646Z,42.74
2023-03-22T12:22:32.913Z,43.09
2023-03-22T12:25:03.668Z,43.46
2023-03-22T12:27:37.334Z,43.30
2023-03-22T12:30:09.196Z,43.09
2023-03-22T12:32:44.314Z,42.90
2023-03-22T12:35:18.312Z,42.87
2023-03-22T12:37:51.914Z,43.11
2023-03-22T12:40:25.393Z,42.77
2023-03-22T12:43:05.132Z,42.36
2023-03-22T12:45:40.277Z,42.54
2023-03-22T12:48:16.838Z,42.73
2023-03-22T12:50:49.793Z,42.35
2023-03-22T12:53:21.195Z,41.96
2023-03-22T12:55:51.896Z,41.78
2023-03-22T12:58:23.328Z,41.45
2023-03-22T13:00:58.032Z,41.23
2023-03-22T13:03:29.705Z,41.06
2023-03-22T13:06:05.723Z,40.73
2023-03-22T13:09:04.141Z,40.34
2023-03-22T13:11:36.184Z,40.67
2023-03-22T13:14:04.593Z,40.48
2023-03-22T13:16:52.697Z,39.30
2023-03-22T13:19:31.453Z,39.57
2023-03-22T13:22:28.433Z,39.09
2023-03-22T13:25:05.756Z,39.39
2023-03-22T13:27:38.971Z,39.23
2023-03-22T13:30:16.750Z,38.84
2023-03-22T13:32:54.601Z,38.34
2023-03-22T13:35:28.049Z,38.19
2023-03-22T13:38:03.882Z,37.73
2023-03-22T13:40:37.810Z,38.00
2023-03-22T13:43:28.799Z,37.66
2023-03-22T13:46:44.697Z,37.90
2023-03-22T13:49:56.101Z,37.99
2023-03-22T13:52:30.267Z,38.42
2023-03-22T13:54:59.867Z,38.17
2023-03-22T13:57:47.645Z,37.54
2023-03-22T14:00:35.394Z,37.67
2023-03-22T14:03:10.681Z,37.62
2023-03-22T14:05:40.344Z,37.29
2023-03-22T14:08:22.216Z,36.22
2023-03-22T14:10:56.522Z,36.87
2023-03-22T14:13:33.062Z,36.35
2023-03-22T14:16:09.717Z,35.97
2023-03-22T14:18:43.301Z,35.86
2023-03-22T14:21:17.137Z,36.04
